Time;durP1;ratioP1;P1;durP2;ratioP2;P2;SDS_P1;SDS_P2;PMS_P1;PMS_P2;Temp;Humidity;BMP_temperature;BMP_pressure;BME280_temperature;BME280_humidity;BME280_pressure;Samples;Min_cycle;Max_cycle;Signal;HPM_P1;HPM_P2
2021/11/28 00:02:19;;;;;;;7.63;6.67;;;4.50;99.90;;;;;;5014881;28;20443;-63
2021/11/28 00:04:46;;;;;;;7.70;6.80;;;4.50;99.90;;;;;;5013997;28;20411;-64
2021/11/28 00:12:50;;;;;;;7.83;5.00;;;4.30;99.90;;;;;;5015574;28;20982;-64
2021/11/28 00:15:19;;;;;;;5.80;4.27;;;4.30;99.90;;;;;;5015218;28;20478;-64
2021/11/28 00:17:46;;;;;;;5.20;3.80;;;4.10;99.90;;;;;;5015037;28;20425;-64
2021/11/28 00:20:15;;;;;;;4.33;3.53;;;4.10;99.90;;;;;;5014566;28;20411;-64
2021/11/28 00:22:42;;;;;;;4.47;3.10;;;4.10;99.90;;;;;;5014624;28;20806;-64
2021/11/28 00:25:17;;;;;;;3.20;2.90;;;4.20;99.90;;;;;;5015564;28;20814;-64
2021/11/28 00:27:44;;;;;;;3.57;3.10;;;4.10;99.90;;;;;;5014937;28;20903;-61
2021/11/28 00:30:14;;;;;;;3.67;2.97;;;4.20;99.90;;;;;;5013487;28;20502;-64
2021/11/28 00:32:40;;;;;;;4.47;2.87;;;4.10;99.90;;;;;;5015323;28;20403;-64
2021/11/28 00:35:06;;;;;;;8.00;3.57;;;4.30;99.90;;;;;;5014812;28;20406;-64
2021/11/28 00:37:31;;;;;;;4.57;2.80;;;4.40;99.90;;;;;;5014783;28;20195;-64
2021/11/28 00:39:57;;;;;;;4.47;3.00;;;4.40;99.90;;;;;;5014664;28;20916;-64
2021/11/28 00:42:23;;;;;;;14.63;3.60;;;4.40;99.90;;;;;;5014451;28;20789;-65
2021/11/28 00:44:48;;;;;;;5.60;2.97;;;4.30;99.90;;;;;;5014013;28;20187;-65
2021/11/28 00:47:15;;;;;;;3.37;2.73;;;4.20;99.90;;;;;;5014523;28;20192;-64
2021/11/28 00:49:50;;;;;;;4.83;3.40;;;4.20;99.90;;;;;;5014443;28;20603;-65
2021/11/28 00:52:16;;;;;;;3.23;2.93;;;4.20;99.90;;;;;;5014417;28;20398;-64
2021/11/28 00:54:42;;;;;;;4.40;3.00;;;4.00;99.90;;;;;;5014935;28;20399;-63
2021/11/28 00:57:08;;;;;;;7.33;3.27;;;4.10;99.90;;;;;;5013186;28;20454;-62
2021/11/28 00:59:34;;;;;;;6.50;3.30;;;4.00;99.90;;;;;;5014360;28;20579;-65
2021/11/28 01:02:00;;;;;;;3.20;2.80;;;4.00;99.90;;;;;;5014364;28;20462;-62
2021/11/28 01:04:26;;;;;;;4.03;3.63;;;4.00;99.90;;;;;;5014633;28;20748;-65
2021/11/28 01:06:52;;;;;;;5.03;2.93;;;3.90;99.90;;;;;;5014427;28;20477;-64
2021/11/28 01:09:19;;;;;;;4.43;3.17;;;4.00;99.90;;;;;;5013165;28;20765;-65
2021/11/28 01:11:45;;;;;;;4.50;3.10;;;4.20;99.90;;;;;;4982866;28;20409;-65
2021/11/28 01:14:11;;;;;;;3.73;3.40;;;4.20;99.90;;;;;;4975363;28;20412;-65
2021/11/28 01:16:37;;;;;;;2.93;2.67;;;4.30;99.90;;;;;;4982377;28;20457;-63
2021/11/28 01:19:04;;;;;;;2.60;2.40;;;4.30;99.90;;;;;;4989695;28;20252;-63
2021/11/28 01:21:30;;;;;;;4.90;3.00;;;4.50;99.90;;;;;;4994195;28;20447;-64
2021/11/28 01:23:56;;;;;;;3.03;2.73;;;4.50;99.90;;;;;;4993708;28;20421;-63
2021/11/28 01:26:22;;;;;;;4.00;3.03;;;4.50;99.90;;;;;;4994392;28;20416;-63
2021/11/28 01:28:47;;;;;;;4.07;2.83;;;4.40;99.90;;;;;;5000796;28;20175;-64
2021/11/28 01:31:13;;;;;;;3.20;2.50;;;4.50;99.90;;;;;;5013755;28;20260;-64
2021/11/28 01:33:39;;;;;;;3.23;2.93;;;4.60;99.90;;;;;;5014209;28;20230;-64
2021/11/28 01:36:04;;;;;;;4.33;2.80;;;4.70;99.90;;;;;;5013728;28;20200;-63
2021/11/28 01:38:31;;;;;;;3.37;3.10;;;4.90;99.90;;;;;;5013874;28;20168;-64
2021/11/28 01:40:57;;;;;;;2.70;2.50;;;5.00;99.90;;;;;;5014192;28;20219;-63
2021/11/28 01:43:23;;;;;;;3.43;2.57;;;4.90;99.90;;;;;;5013832;28;20406;-63
2021/11/28 01:45:52;;;;;;;3.33;3.03;;;5.00;99.90;;;;;;5013674;28;20457;-61
2021/11/28 01:48:18;;;;;;;3.83;2.97;;;5.00;99.90;;;;;;5014005;28;20480;-63
2021/11/28 01:50:49;;;;;;;3.67;3.27;;;4.90;99.90;;;;;;5013663;28;20423;-64
2021/11/28 01:53:21;;;;;;;3.13;2.70;;;4.90;99.90;;;;;;5013540;28;20536;-64
2021/11/28 01:55:48;;;;;;;6.13;3.13;;;4.90;99.90;;;;;;5013780;28;20904;-64
2021/11/28 01:58:14;;;;;;;4.77;4.37;;;5.00;99.90;;;;;;5012579;28;20423;-64
2021/11/28 02:00:50;;;;;;;10.77;7.17;;;4.90;99.90;;;;;;4995775;28;20450;-64
2021/11/28 02:03:18;;;;;;;7.00;5.80;;;4.90;99.90;;;;;;5014029;28;20391;-64
2021/11/28 02:08:26;;;;;;;4.00;3.30;;;4.80;99.90;;;;;;4975613;28;20475;-60
2021/11/28 02:10:52;;;;;;;4.70;3.80;;;4.90;99.90;;;;;;4978114;28;20436;-60
2021/11/28 02:13:20;;;;;;;7.70;3.10;;;4.80;99.90;;;;;;4978111;28;20174;-60
2021/11/28 02:15:46;;;;;;;4.30;2.67;;;4.80;99.90;;;;;;4978090;28;20177;-61
2021/11/28 02:18:12;;;;;;;3.70;2.80;;;4.80;99.90;;;;;;4977676;28;20448;-61
2021/11/28 02:20:48;;;;;;;4.53;3.40;;;4.80;99.90;;;;;;4977653;28;20165;-61
2021/11/28 02:23:14;;;;;;;3.77;3.03;;;4.90;99.90;;;;;;4977155;28;20400;-62
2021/11/28 02:25:41;;;;;;;3.50;3.20;;;4.50;99.90;;;;;;4977623;28;20467;-60
2021/11/28 02:28:06;;;;;;;3.47;2.80;;;4.60;99.90;;;;;;4977565;28;20416;-61
2021/11/28 02:30:33;;;;;;;4.83;2.60;;;4.70;99.90;;;;;;4977208;28;20397;-61
2021/11/28 02:32:58;;;;;;;3.20;2.80;;;4.80;99.90;;;;;;4977577;28;20173;-62
2021/11/28 02:35:26;;;;;;;5.30;3.20;;;4.90;99.90;;;;;;4977468;28;20397;-61
2021/11/28 02:37:52;;;;;;;5.40;2.77;;;4.80;99.90;;;;;;4988423;28;20220;-61
2021/11/28 02:40:20;;;;;;;3.67;2.90;;;4.80;99.90;;;;;;4997120;28;20395;-59
2021/11/28 02:42:48;;;;;;;5.20;3.27;;;4.70;99.90;;;;;;4996813;28;20426;-60
2021/11/28 02:45:13;;;;;;;3.23;2.90;;;4.70;99.90;;;;;;4996725;28;20503;-61
2021/11/28 02:47:39;;;;;;;3.20;2.80;;;4.70;99.90;;;;;;4996855;28;20838;-61
2021/11/28 02:50:06;;;;;;;5.67;3.00;;;4.80;99.90;;;;;;4996641;28;20764;-62
2021/11/28 02:52:32;;;;;;;3.27;2.97;;;4.80;99.90;;;;;;4996266;28;20529;-61
2021/11/28 02:54:58;;;;;;;3.53;3.20;;;4.90;99.90;;;;;;4996556;28;20416;-60
2021/11/28 02:57:24;;;;;;;3.20;2.90;;;4.90;99.90;;;;;;4996490;28;20434;-62
2021/11/28 02:59:50;;;;;;;4.03;2.80;;;4.90;99.90;;;;;;4996288;28;20400;-61
2021/11/28 03:02:15;;;;;;;4.00;3.27;;;5.00;99.90;;;;;;4996310;28;20466;-61
2021/11/28 03:04:41;;;;;;;4.93;2.97;;;4.90;99.90;;;;;;4976564;28;20205;-61
2021/11/28 03:07:07;;;;;;;4.30;2.30;;;4.70;99.90;;;;;;4981760;28;20216;-61
2021/11/28 03:09:32;;;;;;;3.50;3.20;;;4.80;99.90;;;;;;4996610;28;20569;-61
2021/11/28 03:11:58;;;;;;;3.40;2.83;;;4.90;99.90;;;;;;4996256;28;20181;-61
2021/11/28 03:14:24;;;;;;;4.23;2.37;;;4.90;99.90;;;;;;4995909;28;20252;-61
2021/11/28 03:16:50;;;;;;;3.80;2.73;;;4.90;99.90;;;;;;4996130;28;20676;-59
2021/11/28 03:19:16;;;;;;;3.67;2.50;;;4.80;99.90;;;;;;4996137;28;20814;-61
2021/11/28 03:21:41;;;;;;;3.67;2.90;;;4.90;99.90;;;;;;4996218;28;20486;-61
2021/11/28 03:24:07;;;;;;;3.53;2.87;;;4.90;99.90;;;;;;4996621;28;20175;-61
2021/11/28 03:26:41;;;;;;;4.47;3.30;;;4.80;99.90;;;;;;4995950;28;20189;-60
2021/11/28 03:29:14;;;;;;;2.83;2.57;;;4.90;99.90;;;;;;4995606;28;20384;-62
2021/11/28 03:31:42;;;;;;;2.73;2.50;;;4.80;99.90;;;;;;4996160;28;20444;-62
2021/11/28 03:34:09;;;;;;;3.90;3.00;;;4.90;99.90;;;;;;4995688;28;20412;-62
2021/11/28 03:36:39;;;;;;;4.60;3.03;;;4.90;99.90;;;;;;4995699;28;20458;-60
2021/11/28 03:39:08;;;;;;;4.57;3.57;;;4.80;99.90;;;;;;4995652;28;20420;-61
2021/11/28 03:41:35;;;;;;;2.83;2.63;;;4.90;99.90;;;;;;4995637;28;20949;-60
2021/11/28 03:44:01;;;;;;;4.77;3.80;;;4.90;99.90;;;;;;4995692;28;20845;-57
2021/11/28 03:46:28;;;;;;;4.10;3.70;;;4.80;99.90;;;;;;4995926;28;20422;-61
2021/11/28 03:48:55;;;;;;;3.67;3.37;;;4.70;99.90;;;;;;4995830;28;20462;-61
2021/11/28 03:51:21;;;;;;;5.13;2.97;;;4.70;99.90;;;;;;4995768;28;20412;-61
2021/11/28 03:53:47;;;;;;;4.53;2.90;;;4.60;99.90;;;;;;4995503;28;20442;-55
2021/11/28 03:56:13;;;;;;;5.90;2.83;;;4.60;99.90;;;;;;4995372;28;20275;-59
2021/11/28 03:58:39;;;;;;;3.10;2.77;;;4.60;99.90;;;;;;4995467;28;20176;-60
2021/11/28 04:01:09;;;;;;;3.83;2.90;;;4.60;99.90;;;;;;4995521;28;20462;-62
2021/11/28 04:03:35;;;;;;;5.30;3.47;;;4.60;99.90;;;;;;4995270;28;20827;-60
2021/11/28 04:06:01;;;;;;;4.43;2.57;;;4.70;99.90;;;;;;4995024;28;20487;-61
2021/11/28 04:08:27;;;;;;;3.60;2.77;;;4.70;99.90;;;;;;4995108;28;20980;-61
2021/11/28 04:10:52;;;;;;;4.80;2.77;;;4.70;99.90;;;;;;4995375;28;20176;-61
2021/11/28 04:13:18;;;;;;;2.57;2.37;;;4.60;99.90;;;;;;4995381;28;20168;-61
2021/11/28 04:15:44;;;;;;;2.70;2.23;;;4.50;99.90;;;;;;4994838;28;20574;-61
2021/11/28 04:18:10;;;;;;;5.13;2.27;;;4.40;99.90;;;;;;4994918;28;20220;-61
2021/11/28 04:20:36;;;;;;;3.43;2.60;;;4.50;99.90;;;;;;4994893;28;20175;-61
2021/11/28 04:23:02;;;;;;;3.47;2.80;;;4.50;99.90;;;;;;4994909;28;20248;-61
2021/11/28 04:25:28;;;;;;;3.53;2.60;;;4.50;99.90;;;;;;4995144;28;20172;-61
2021/11/28 04:27:54;;;;;;;2.87;2.23;;;4.60;99.90;;;;;;4994387;28;20428;-62
2021/11/28 04:30:20;;;;;;;3.17;2.20;;;4.80;99.90;;;;;;4994466;28;20411;-61
2021/11/28 04:32:45;;;;;;;4.17;2.53;;;4.80;99.90;;;;;;4994996;28;20212;-62
2021/11/28 04:35:11;;;;;;;4.33;2.70;;;4.90;99.90;;;;;;4994758;28;20204;-61
2021/11/28 04:37:37;;;;;;;3.43;2.70;;;4.70;99.90;;;;;;4994269;28;20205;-59
2021/11/28 04:40:04;;;;;;;3.00;2.33;;;4.70;99.90;;;;;;4994871;28;20627;-61
2021/11/28 04:42:30;;;;;;;3.27;2.40;;;4.60;99.90;;;;;;4994625;28;20821;-59
2021/11/28 04:44:56;;;;;;;4.53;2.73;;;4.70;99.90;;;;;;4976693;28;20416;-58
2021/11/28 04:47:22;;;;;;;2.87;2.43;;;4.70;99.90;;;;;;4994437;28;20224;-61
2021/11/28 04:49:48;;;;;;;7.13;2.90;;;4.60;99.90;;;;;;4994341;28;20408;-61
2021/11/28 04:52:14;;;;;;;3.93;3.53;;;4.40;99.90;;;;;;4994347;28;20422;-61
2021/11/28 04:54:40;;;;;;;5.00;4.20;;;4.40;99.90;;;;;;4966594;28;20601;-61
2021/11/28 04:57:06;;;;;;;6.27;3.90;;;4.30;99.90;;;;;;4974469;28;20424;-60
2021/11/28 04:59:32;;;;;;;3.93;3.60;;;4.30;99.90;;;;;;4973899;28;20193;-59
2021/11/28 05:01:58;;;;;;;8.20;6.17;;;4.30;99.90;;;;;;4974778;28;20495;-61
2021/11/28 05:04:24;;;;;;;5.53;4.13;;;4.30;99.90;;;;;;4974823;28;20250;-61
2021/11/28 05:06:49;;;;;;;4.17;3.50;;;4.30;99.90;;;;;;4977033;28;20266;-60
2021/11/28 05:09:15;;;;;;;5.90;3.73;;;4.30;99.90;;;;;;4992623;28;20836;-59
2021/11/28 05:11:41;;;;;;;4.00;3.10;;;4.30;99.90;;;;;;4994243;28;20537;-60
2021/11/28 05:14:07;;;;;;;4.00;3.60;;;4.40;99.90;;;;;;4993706;28;20180;-61
2021/11/28 05:16:33;;;;;;;6.20;3.40;;;4.50;99.90;;;;;;4994156;28;20503;-60
2021/11/28 05:18:59;;;;;;;3.13;2.83;;;4.60;99.90;;;;;;4994220;28;20179;-59
2021/11/28 05:21:25;;;;;;;3.80;3.40;;;4.70;99.90;;;;;;4993847;28;20455;-60
2021/11/28 05:23:51;;;;;;;5.23;3.50;;;4.70;99.90;;;;;;4993527;28;20679;-60
2021/11/28 05:26:16;;;;;;;3.60;3.17;;;4.80;99.90;;;;;;4994011;28;20549;-60
2021/11/28 05:28:42;;;;;;;4.07;3.67;;;4.70;99.90;;;;;;4994510;28;20173;-61
2021/11/28 05:31:07;;;;;;;4.60;3.30;;;4.70;99.90;;;;;;4992892;28;20173;-60
2021/11/28 05:33:33;;;;;;;3.47;2.70;;;4.70;99.90;;;;;;4993810;28;20256;-59
2021/11/28 05:35:59;;;;;;;3.23;2.93;;;4.70;99.90;;;;;;4993933;28;20223;-60
2021/11/28 05:38:24;;;;;;;3.13;2.83;;;4.70;99.90;;;;;;4992584;28;20458;-61
2021/11/28 05:40:50;;;;;;;2.70;2.50;;;4.70;99.90;;;;;;4994148;28;20267;-60
2021/11/28 05:43:16;;;;;;;5.17;2.93;;;4.60;99.90;;;;;;4993650;28;20586;-57
2021/11/28 05:45:42;;;;;;;4.57;2.97;;;4.70;99.90;;;;;;4993755;28;20177;-59
2021/11/28 05:48:07;;;;;;;3.93;2.60;;;4.60;99.90;;;;;;4993846;28;20432;-61
2021/11/28 05:50:33;;;;;;;4.23;2.73;;;4.60;99.90;;;;;;4993628;28;20169;-61
2021/11/28 05:52:59;;;;;;;2.97;2.70;;;4.60;99.90;;;;;;4993604;28;20633;-60
2021/11/28 05:55:26;;;;;;;4.60;2.83;;;4.60;99.90;;;;;;4976134;28;20169;-57
2021/11/28 05:57:52;;;;;;;3.00;2.70;;;4.60;99.90;;;;;;4993448;28;20507;-60
2021/11/28 06:00:20;;;;;;;3.90;3.20;;;4.50;99.90;;;;;;4993461;28;20503;-61
2021/11/28 06:02:46;;;;;;;2.97;2.23;;;4.40;99.90;;;;;;4993592;28;20811;-60
2021/11/28 06:05:11;;;;;;;3.37;2.70;;;4.40;99.90;;;;;;4993516;28;20411;-59
2021/11/28 06:07:38;;;;;;;3.00;2.67;;;4.40;99.90;;;;;;4993087;28;20295;-59
2021/11/28 06:10:05;;;;;;;3.13;2.13;;;4.40;99.90;;;;;;4976042;28;20180;-61
2021/11/28 06:12:31;;;;;;;3.77;2.53;;;4.50;99.90;;;;;;4993399;28;20469;-61
2021/11/28 06:14:56;;;;;;;3.10;2.73;;;4.50;99.90;;;;;;4993355;28;20945;-61
2021/11/28 06:17:23;;;;;;;2.50;2.30;;;4.40;99.90;;;;;;4993890;28;20196;-61
2021/11/28 06:19:48;;;;;;;3.13;2.63;;;4.50;99.90;;;;;;4993373;28;20184;-61
2021/11/28 06:22:14;;;;;;;2.63;2.37;;;4.50;99.90;;;;;;4993280;28;20503;-59
2021/11/28 06:24:40;;;;;;;3.17;1.90;;;4.50;99.90;;;;;;4993138;28;20201;-60
2021/11/28 06:27:07;;;;;;;3.43;2.60;;;4.60;99.90;;;;;;4993334;28;20180;-61
2021/11/28 06:29:33;;;;;;;4.50;2.30;;;4.60;99.90;;;;;;4992671;28;20176;-61
2021/11/28 06:31:59;;;;;;;2.93;2.20;;;4.60;99.90;;;;;;4993630;28;20446;-59
2021/11/28 06:34:25;;;;;;;3.03;2.83;;;4.60;99.90;;;;;;4993285;28;20411;-61
2021/11/28 06:36:50;;;;;;;2.13;1.93;;;4.60;99.90;;;;;;4993223;28;20192;-61
2021/11/28 06:39:16;;;;;;;2.80;2.60;;;4.60;99.90;;;;;;4993205;28;20259;-61
2021/11/28 06:41:41;;;;;;;3.00;2.37;;;4.60;99.90;;;;;;4993377;28;20235;-61
2021/11/28 06:44:07;;;;;;;3.20;2.07;;;4.60;99.90;;;;;;4993195;28;20165;-60
2021/11/28 06:46:33;;;;;;;2.60;2.00;;;4.70;99.90;;;;;;4993601;28;20189;-59
2021/11/28 06:48:59;;;;;;;3.13;2.50;;;4.60;99.90;;;;;;4993584;28;20169;-61
2021/11/28 06:51:25;;;;;;;3.57;2.27;;;4.60;99.90;;;;;;4996678;28;20235;-61
2021/11/28 06:53:50;;;;;;;2.90;2.40;;;4.60;99.90;;;;;;4996394;28;20412;-61
2021/11/28 06:56:16;;;;;;;2.83;2.50;;;4.50;99.90;;;;;;4990336;28;20961;-59
2021/11/28 06:58:41;;;;;;;2.77;2.57;;;4.50;99.90;;;;;;4977526;28;20215;-61
2021/11/28 07:01:07;;;;;;;4.63;3.50;;;4.50;99.90;;;;;;4995452;28;20200;-60
2021/11/28 07:03:33;;;;;;;3.53;2.80;;;4.40;99.90;;;;;;4996558;28;20172;-61
2021/11/28 07:05:59;;;;;;;2.60;2.40;;;4.50;99.90;;;;;;4996350;28;20676;-61
2021/11/28 07:08:24;;;;;;;2.90;2.50;;;4.40;99.90;;;;;;4996036;28;20208;-58
2021/11/28 07:10:50;;;;;;;2.70;2.50;;;4.40;99.90;;;;;;4996127;28;20498;-61
2021/11/28 07:13:16;;;;;;;3.93;3.53;;;4.40;99.90;;;;;;4996224;28;20183;-58
2021/11/28 07:15:42;;;;;;;4.70;3.47;;;4.40;99.90;;;;;;4996354;28;20196;-61
2021/11/28 07:18:08;;;;;;;3.40;3.10;;;4.40;99.90;;;;;;4996447;28;20428;-58
2021/11/28 07:20:34;;;;;;;3.10;2.90;;;4.20;99.90;;;;;;4996145;28;20479;-61
2021/11/28 07:23:02;;;;;;;3.43;2.67;;;4.30;99.90;;;;;;4996205;28;20173;-60
2021/11/28 07:25:27;;;;;;;6.13;3.70;;;4.50;99.90;;;;;;4996302;28;20411;-62
2021/11/28 07:27:53;;;;;;;3.73;2.23;;;4.60;99.90;;;;;;4995719;28;20424;-61
2021/11/28 07:30:19;;;;;;;3.33;2.80;;;4.70;99.90;;;;;;4995871;28;20176;-62
2021/11/28 07:32:45;;;;;;;3.33;2.90;;;4.80;99.90;;;;;;4996164;28;20772;-62
2021/11/28 07:35:11;;;;;;;3.37;2.90;;;4.90;99.90;;;;;;4996129;28;20414;-61
2021/11/28 07:37:36;;;;;;;3.33;3.03;;;4.90;99.90;;;;;;4995826;28;20195;-61
2021/11/28 07:40:03;;;;;;;2.73;2.53;;;4.90;99.90;;;;;;4995853;28;20227;-61
2021/11/28 07:42:29;;;;;;;3.97;3.27;;;4.90;99.90;;;;;;4995580;28;20208;-61
2021/11/28 07:44:55;;;;;;;3.10;2.90;;;5.00;99.90;;;;;;4995884;28;20400;-60
2021/11/28 07:47:21;;;;;;;4.07;3.67;;;5.00;99.90;;;;;;4996088;28;20197;-60
2021/11/28 07:49:47;;;;;;;3.13;2.87;;;5.00;99.90;;;;;;4996539;28;20458;-61
2021/11/28 07:52:13;;;;;;;5.80;3.20;;;4.90;99.90;;;;;;4991137;28;20193;-61
2021/11/28 07:54:40;;;;;;;4.40;3.87;;;5.00;99.90;;;;;;4976050;28;20292;-61
2021/11/28 07:57:05;;;;;;;2.83;2.63;;;5.00;99.90;;;;;;4994446;28;20490;-60
2021/11/28 07:59:33;;;;;;;5.60;3.50;;;5.10;99.90;;;;;;4995536;28;20177;-61
2021/11/28 08:01:59;;;;;;;3.90;3.27;;;5.20;99.90;;;;;;4994764;28;20232;-59
2021/11/28 08:04:25;;;;;;;3.93;3.23;;;5.30;99.90;;;;;;4995467;28;20773;-59
2021/11/28 08:06:51;;;;;;;5.53;2.83;;;5.30;99.90;;;;;;5026022;23;20455;-61
2021/11/28 08:09:16;;;;;;;3.00;2.70;;;5.40;99.90;;;;;;5014162;28;20226;-62
2021/11/28 08:11:42;;;;;;;3.30;2.70;;;5.40;99.90;;;;;;5015426;28;20594;-62
2021/11/28 08:14:08;;;;;;;4.10;3.57;;;5.40;99.90;;;;;;5015311;28;20536;-62
2021/11/28 08:16:33;;;;;;;6.80;5.93;;;5.50;99.90;;;;;;5015533;28;20172;-61
2021/11/28 08:18:59;;;;;;;4.43;3.70;;;5.50;99.90;;;;;;5015150;28;20199;-60
2021/11/28 08:21:28;;;;;;;3.73;2.90;;;5.50;99.90;;;;;;5015423;28;20195;-62
2021/11/28 08:23:58;;;;;;;4.87;3.30;;;5.50;99.90;;;;;;5014886;28;20160;-62
2021/11/28 08:26:24;;;;;;;2.97;2.73;;;5.50;99.90;;;;;;5015323;28;20387;-62
2021/11/28 08:28:50;;;;;;;4.23;2.90;;;5.40;99.90;;;;;;5014945;28;20419;-63
2021/11/28 08:31:16;;;;;;;5.73;3.17;;;5.50;99.90;;;;;;5014021;28;20530;-63
2021/11/28 08:33:42;;;;;;;3.57;3.27;;;5.50;99.90;;;;;;5015204;28;20442;-63
2021/11/28 08:36:08;;;;;;;3.10;2.70;;;5.60;99.90;;;;;;5015222;28;20176;-62
2021/11/28 08:38:35;;;;;;;3.00;2.70;;;5.70;99.90;;;;;;5015028;28;20928;-63
2021/11/28 08:41:01;;;;;;;2.90;2.70;;;5.80;99.90;;;;;;5015574;28;20757;-61
2021/11/28 08:43:27;;;;;;;3.37;2.87;;;5.80;99.90;;;;;;5014847;28;20494;-63
2021/11/28 08:45:52;;;;;;;5.00;3.77;;;5.70;99.90;;;;;;5015276;28;20172;-63
2021/11/28 08:48:18;;;;;;;5.37;3.70;;;5.70;99.90;;;;;;5014848;28;20665;-62
2021/11/28 08:50:44;;;;;;;4.00;3.50;;;5.80;99.90;;;;;;5014884;28;20164;-62
2021/11/28 08:53:11;;;;;;;7.20;6.60;;;5.70;99.90;;;;;;5013725;28;20438;-61
2021/11/28 08:55:37;;;;;;;4.47;3.80;;;5.70;99.90;;;;;;4994654;28;20405;-62
2021/11/28 08:58:04;;;;;;;5.20;4.00;;;5.70;99.90;;;;;;4975338;28;20479;-63
2021/11/28 09:00:29;;;;;;;3.97;3.60;;;5.90;99.90;;;;;;4975835;28;20419;-63
2021/11/28 09:02:55;;;;;;;4.10;3.03;;;5.90;99.90;;;;;;4975673;28;20444;-63
2021/11/28 09:05:21;;;;;;;5.20;4.70;;;5.90;99.90;;;;;;4976840;28;20216;-63
2021/11/28 09:07:48;;;;;;;3.60;3.17;;;6.00;99.90;;;;;;4975958;28;20708;-63
2021/11/28 09:10:16;;;;;;;3.27;2.97;;;6.10;99.90;;;;;;4976084;28;20427;-63
2021/11/28 09:12:43;;;;;;;3.13;2.83;;;6.00;99.90;;;;;;4975023;28;20771;-63
2021/11/28 09:15:09;;;;;;;3.27;2.73;;;6.20;99.90;;;;;;4976120;28;20423;-63
2021/11/28 09:17:36;;;;;;;3.50;3.03;;;6.20;99.90;;;;;;4975633;28;20503;-63
2021/11/28 09:25:12;;;;;;;3.37;3.07;;;5.90;99.90;;;;;;5022355;28;20445;-64
2021/11/28 09:27:43;;;;;;;3.50;3.20;;;6.00;99.90;;;;;;5020685;28;20418;-63
2021/11/28 09:30:10;;;;;;;3.57;3.27;;;6.10;99.90;;;;;;5016550;28;20418;-61
2021/11/28 09:32:35;;;;;;;4.33;3.93;;;6.20;99.90;;;;;;5015663;28;20503;-62
2021/11/28 09:35:01;;;;;;;3.23;2.93;;;6.10;99.90;;;;;;5015316;28;20434;-62
2021/11/28 09:37:27;;;;;;;4.53;3.83;;;6.30;99.90;;;;;;5003879;28;20196;-63
2021/11/28 09:39:53;;;;;;;4.73;3.73;;;6.30;99.90;;;;;;4995509;28;20415;-62
2021/11/28 09:42:27;;;;;;;4.13;3.70;;;6.40;99.90;;;;;;4994993;28;20667;-61
2021/11/28 09:44:54;;;;;;;4.10;3.47;;;6.50;99.90;;;;;;4978121;28;20152;-62
2021/11/28 09:47:21;;;;;;;4.00;3.40;;;6.40;99.90;;;;;;4996346;28;20808;-61
2021/11/28 09:49:46;;;;;;;4.37;3.23;;;6.20;99.90;;;;;;4996678;28;20914;-63
2021/11/28 09:52:23;;;;;;;4.77;4.37;;;6.40;99.90;;;;;;4996907;28;20409;-62
2021/11/28 09:54:59;;;;;;;4.50;3.13;;;6.50;99.90;;;;;;4999920;28;20163;-65
2021/11/28 09:57:25;;;;;;;5.07;4.07;;;6.40;99.90;;;;;;5001540;28;20476;-62
2021/11/28 09:59:52;;;;;;;3.27;3.00;;;6.20;99.90;;;;;;5005774;28;20414;-63
2021/11/28 10:02:28;;;;;;;3.60;3.30;;;6.30;99.90;;;;;;5019615;28;20439;-63
2021/11/28 10:04:56;;;;;;;3.77;3.37;;;6.40;99.90;;;;;;5020641;28;20423;-64
2021/11/28 10:07:23;;;;;;;3.57;3.27;;;6.40;99.90;;;;;;5020117;28;20809;-63
2021/11/28 10:09:49;;;;;;;3.97;3.57;;;6.20;99.90;;;;;;5016629;28;20427;-65
2021/11/28 10:12:19;;;;;;;3.77;3.40;;;5.90;99.90;;;;;;5013252;28;20407;-64
2021/11/28 10:14:51;;;;;;;3.70;3.17;;;5.90;99.90;;;;;;5014485;28;20167;-63
2021/11/28 10:17:19;;;;;;;4.20;3.00;;;6.00;99.90;;;;;;5013614;28;20473;-63
2021/11/28 10:19:45;;;;;;;3.70;3.30;;;6.20;99.90;;;;;;5013789;28;20498;-63
2021/11/28 10:22:11;;;;;;;3.80;2.93;;;6.10;99.90;;;;;;5013543;28;20438;-63
2021/11/28 10:24:49;;;;;;;6.00;3.33;;;6.00;99.90;;;;;;5014571;28;20410;-64
2021/11/28 10:27:14;;;;;;;3.13;2.90;;;6.00;99.90;;;;;;5016962;28;20245;-61
2021/11/28 10:29:42;;;;;;;2.70;2.50;;;6.20;99.90;;;;;;5016014;28;20423;-63
2021/11/28 10:32:10;;;;;;;3.23;3.00;;;6.00;99.90;;;;;;5017438;28;20170;-63
2021/11/28 10:34:42;;;;;;;4.23;3.83;;;6.00;99.90;;;;;;5017598;28;20472;-63
2021/11/28 10:37:16;;;;;;;3.27;3.00;;;6.10;99.90;;;;;;5016937;28;20558;-63
2021/11/28 10:39:46;;;;;;;4.30;3.37;;;6.40;99.90;;;;;;5017594;28;20388;-63
2021/11/28 10:42:27;;;;;;;4.40;3.40;;;6.40;99.90;;;;;;5017037;28;20435;-63
2021/11/28 10:45:01;;;;;;;2.90;2.70;;;6.40;99.90;;;;;;5013617;28;20406;-63
2021/11/28 10:47:48;;;;;;;4.17;2.93;;;6.30;99.90;;;;;;4987063;28;20444;-63
2021/11/28 10:50:26;;;;;;;3.53;3.23;;;6.40;99.90;;;;;;4977729;28;20524;-63
2021/11/28 10:53:19;;;;;;;8.90;4.37;;;6.50;99.90;;;;;;4980258;28;20398;-64
2021/11/28 10:55:58;;;;;;;3.30;3.00;;;6.50;99.90;;;;;;4979429;28;20382;-63
2021/11/28 10:58:26;;;;;;;3.73;2.97;;;6.40;99.90;;;;;;5016515;28;20430;-62
2021/11/28 11:00:52;;;;;;;4.10;2.70;;;6.40;99.90;;;;;;5016718;28;20434;-63
2021/11/28 11:03:29;;;;;;;4.30;2.80;;;6.60;99.90;;;;;;5016707;28;20868;-63
2021/11/28 11:06:19;;;;;;;3.87;3.57;;;6.40;99.90;;;;;;5016796;28;20215;-63
2021/11/28 11:08:45;;;;;;;3.50;3.00;;;6.60;99.90;;;;;;5016270;28;20511;-64
2021/11/28 11:11:14;;;;;;;3.33;2.80;;;6.50;99.90;;;;;;5016254;28;20466;-63
2021/11/28 11:14:00;;;;;;;4.13;2.60;;;6.40;99.90;;;;;;5016151;28;20404;-63
2021/11/28 11:16:34;;;;;;;2.70;2.40;;;6.40;99.90;;;;;;5015967;28;20379;-63
2021/11/28 11:19:32;;;;;;;3.33;2.13;;;6.30;99.90;;;;;;5016253;28;20825;-64
2021/11/28 11:22:04;;;;;;;3.93;2.40;;;6.50;99.90;;;;;;5016300;28;20427;-63
2021/11/28 11:24:30;;;;;;;3.70;2.40;;;6.50;99.90;;;;;;5016818;28;20814;-63
2021/11/28 11:27:05;;;;;;;4.90;2.87;;;6.60;99.90;;;;;;5015884;28;20435;-62
2021/11/28 11:29:31;;;;;;;4.67;2.23;;;6.60;99.90;;;;;;5015381;28;20419;-63
2021/11/28 11:32:02;;;;;;;2.33;2.20;;;6.80;99.90;;;;;;5016138;28;20435;-63
2021/11/28 11:34:32;;;;;;;3.20;2.20;;;6.70;99.90;;;;;;5016066;28;20211;-64
2021/11/28 11:37:05;;;;;;;3.50;2.70;;;6.40;99.90;;;;;;5016011;28;20520;-64
2021/11/28 11:39:32;;;;;;;4.70;2.83;;;6.50;99.90;;;;;;5016189;28;20408;-64
2021/11/28 11:41:59;;;;;;;3.83;3.03;;;6.50;99.90;;;;;;5016155;28;20497;-62
2021/11/28 11:44:27;;;;;;;3.43;2.33;;;6.70;99.90;;;;;;5015388;28;20407;-63
2021/11/28 11:46:56;;;;;;;2.70;2.50;;;6.80;99.90;;;;;;5016158;28;20427;-63
2021/11/28 11:49:24;;;;;;;3.87;2.50;;;6.80;99.90;;;;;;5016194;28;20471;-64
2021/11/28 11:51:50;;;;;;;3.30;3.00;;;6.90;99.90;;;;;;5016387;28;20408;-64
2021/11/28 11:54:27;;;;;;;5.67;3.13;;;7.10;99.90;;;;;;5015653;28;20780;-63
2021/11/28 11:57:11;;;;;;;3.37;3.07;;;7.30;99.90;;;;;;5015419;28;20412;-63
2021/11/28 12:00:07;;;;;;;6.60;6.00;;;6.70;99.90;;;;;;5016104;28;20409;-64
2021/11/28 12:02:42;;;;;;;8.40;7.40;;;6.50;99.90;;;;;;5000932;28;20464;-63
2021/11/28 12:05:26;;;;;;;7.40;6.70;;;6.30;99.90;;;;;;5015820;28;20407;-64
2021/11/28 12:07:56;;;;;;;8.10;6.60;;;6.20;99.90;;;;;;4996556;28;20457;-63
2021/11/28 12:10:34;;;;;;;10.60;8.57;;;6.20;99.90;;;;;;4995694;28;20464;-64
2021/11/28 12:13:03;;;;;;;9.50;7.80;;;6.30;99.90;;;;;;4995654;28;20396;-63
2021/11/28 12:15:37;;;;;;;8.13;7.30;;;6.00;99.90;;;;;;4996135;28;20396;-63
2021/11/28 12:18:05;;;;;;;6.87;6.10;;;6.00;99.90;;;;;;4995719;28;20798;-62
2021/11/28 12:20:43;;;;;;;8.60;7.00;;;6.00;99.90;;;;;;4995831;28;20405;-63
2021/11/28 12:23:29;;;;;;;7.00;6.30;;;5.90;99.90;;;;;;4995574;28;20413;-63
2021/11/28 12:25:55;;;;;;;8.77;6.80;;;5.90;99.90;;;;;;4994022;28;20413;-63
2021/11/28 12:28:20;;;;;;;7.87;7.13;;;5.90;99.90;;;;;;4995319;28;20944;-63
2021/11/28 12:30:52;;;;;;;7.70;6.90;;;5.70;99.90;;;;;;5009654;28;20179;-63
2021/11/28 12:33:18;;;;;;;7.27;6.57;;;5.80;99.90;;;;;;5014672;28;20225;-63
2021/11/28 12:35:44;;;;;;;7.60;6.63;;;6.00;99.90;;;;;;5015066;28;20399;-63
2021/11/28 12:38:10;;;;;;;6.93;6.23;;;6.10;99.90;;;;;;5014805;28;20433;-63
2021/11/28 12:40:40;;;;;;;6.30;5.70;;;6.00;99.90;;;;;;5014964;28;20774;-63
2021/11/28 12:43:17;;;;;;;6.20;5.60;;;5.70;99.90;;;;;;5014711;28;20200;-62
2021/11/28 12:45:43;;;;;;;5.73;5.23;;;5.80;99.90;;;;;;5014751;28;20783;-64
2021/11/28 12:48:21;;;;;;;8.33;5.80;;;6.00;99.90;;;;;;5014373;28;20440;-64
2021/11/28 12:50:51;;;;;;;6.13;4.77;;;6.10;99.90;;;;;;5014969;28;20478;-64
2021/11/28 12:53:38;;;;;;;8.43;6.60;;;6.30;99.90;;;;;;5011676;28;20401;-64
2021/11/28 12:56:13;;;;;;;7.20;6.60;;;6.40;99.90;;;;;;4975652;28;20385;-64
2021/11/28 12:59:10;;;;;;;7.47;6.77;;;6.50;99.90;;;;;;4975194;28;20425;-64
2021/11/28 13:01:59;;;;;;;8.80;5.77;;;6.40;99.90;;;;;;4975320;28;20444;-63
2021/11/28 13:04:40;;;;;;;8.10;6.20;;;6.50;99.90;;;;;;4974800;28;20508;-64
2021/11/28 13:07:24;;;;;;;6.30;5.13;;;6.40;99.90;;;;;;4975149;28;20429;-61
2021/11/28 13:09:54;;;;;;;5.43;5.03;;;6.30;99.90;;;;;;4974747;28;20409;-63
2021/11/28 13:12:23;;;;;;;16.27;14.97;;;6.30;99.90;;;;;;4975020;28;20412;-64
2021/11/28 13:14:50;;;;;;;7.70;6.10;;;6.40;99.90;;;;;;4975191;28;20413;-64
2021/11/28 13:17:23;;;;;;;5.70;5.20;;;6.10;99.90;;;;;;4976186;28;20455;-63